Time;durP1;ratioP1;P1;durP2;ratioP2;P2;SDS_P1;SDS_P2;PMS_P1;PMS_P2;Temp;Humidity;BMP_temperature;BMP_pressure;BME280_temperature;BME280_humidity;BME280_pressure;Samples;Min_cycle;Max_cycle;Signal;HPM_P1;HPM_P2
2022/07/09 00:00:54;;;;;;;8.10;5.53;;;;;;;17.23;75.79;101557.53;10400083;28;20679;-79
2022/07/09 00:05:57;;;;;;;10.45;6.22;;;;;;;17.17;75.81;101557.25;10404286;28;20073;-79
2022/07/09 00:11:01;;;;;;;7.82;6.20;;;;;;;16.88;76.10;101552.56;10398824;28;20053;-80
2022/07/09 00:16:05;;;;;;;10.05;7.22;;;;;;;16.75;76.45;101549.22;10399229;28;20041;-79
2022/07/09 00:21:08;;;;;;;10.82;8.05;;;;;;;16.69;76.94;101545.19;10413180;28;20049;-79
2022/07/09 00:26:12;;;;;;;13.00;7.03;;;;;;;16.67;76.89;101549.88;10390560;28;20054;-78
2022/07/09 00:31:14;;;;;;;11.13;7.45;;;;;;;16.65;76.93;101548.28;10398565;28;20049;-79
2022/07/09 00:36:17;;;;;;;10.00;6.82;;;;;;;16.55;77.46;101540.13;10382409;28;20207;-79
2022/07/09 00:41:21;;;;;;;8.88;6.63;;;;;;;16.54;77.46;101536.56;10393367;28;20057;-79
2022/07/09 00:46:24;;;;;;;15.00;7.45;;;;;;;16.54;77.88;101533.84;10398890;28;20168;-79
2022/07/09 00:51:27;;;;;;;11.65;7.85;;;;;;;16.51;77.42;101535.97;10399131;28;20747;-78
2022/07/09 00:56:31;;;;;;;8.93;6.55;;;;;;;16.46;77.72;101536.38;10393236;28;20503;-78
2022/07/09 01:01:35;;;;;;;8.85;6.53;;;;;;;16.46;77.69;101535.53;10400147;28;20128;-77
2022/07/09 01:06:38;;;;;;;11.57;6.40;;;;;;;16.44;77.42;101530.22;10410691;28;20056;-77
2022/07/09 01:11:42;;;;;;;8.63;6.30;;;;;;;16.34;77.43;101527.44;10408352;28;20056;-78
2022/07/09 01:16:45;;;;;;;8.27;6.60;;;;;;;16.35;77.63;101528.34;10401283;28;20072;-79
2022/07/09 01:21:49;;;;;;;9.10;6.93;;;;;;;16.34;77.67;101523.88;10414556;28;20082;-78
2022/07/09 01:26:54;;;;;;;10.18;6.75;;;;;;;16.32;77.67;101521.31;10402626;28;20834;-79
2022/07/09 01:31:56;;;;;;;14.18;6.45;;;;;;;16.33;77.70;101524.91;10399005;28;20194;-78
2022/07/09 01:37:00;;;;;;;10.23;8.15;;;;;;;16.31;77.93;101514.16;10399697;28;20037;-78
2022/07/09 01:42:03;;;;;;;14.93;7.20;;;;;;;16.32;77.82;101510.47;10402327;28;20189;-79
2022/07/09 01:47:06;;;;;;;11.35;8.15;;;;;;;16.13;78.79;101507.63;10401673;28;20087;-79
2022/07/09 01:52:10;;;;;;;12.57;8.43;;;;;;;16.39;78.12;101499.09;10384635;28;20495;-78
2022/07/09 01:57:13;;;;;;;15.02;8.82;;;;;;;16.36;77.94;101500.22;10395590;28;20122;-79
2022/07/09 02:02:16;;;;;;;12.32;8.18;;;;;;;16.31;78.03;101491.63;10404117;28;21519;-79
2022/07/09 02:07:20;;;;;;;13.38;8.82;;;;;;;16.25;78.33;101484.84;10402686;28;20106;-79
2022/07/09 02:12:23;;;;;;;15.15;8.80;;;;;;;16.36;77.83;101486.66;10396202;28;20729;-79
2022/07/09 02:17:25;;;;;;;15.93;9.25;;;;;;;16.31;77.94;101486.19;10398302;28;20128;-78
2022/07/09 02:22:30;;;;;;;14.18;8.50;;;;;;;16.30;78.19;101473.66;10396030;28;20053;-79
2022/07/09 02:27:32;;;;;;;16.15;9.55;;;;;;;16.28;78.53;101476.47;10392893;28;20085;-79
2022/07/09 02:32:36;;;;;;;16.83;9.20;;;;;;;16.28;78.36;101468.34;10404241;28;20057;-78
2022/07/09 02:37:41;;;;;;;20.60;9.85;;;;;;;16.06;79.32;101466.63;10398517;28;20140;-78
2022/07/09 02:42:44;;;;;;;14.40;9.93;;;;;;;16.26;78.82;101470.34;10387894;28;20049;-79
2022/07/09 02:47:47;;;;;;;17.48;9.70;;;;;;;16.23;78.66;101462.44;10396376;28;20664;-78
2022/07/09 02:52:51;;;;;;;16.00;8.90;;;;;;;16.41;77.98;101470.84;10402968;28;20077;-78
2022/07/09 02:57:54;;;;;;;21.42;10.25;;;;;;;16.36;77.96;101475.81;10399283;28;20041;-78
2022/07/09 03:02:56;;;;;;;18.38;9.10;;;;;;;16.30;78.34;101477.22;10405221;28;20138;-78
2022/07/09 03:08:01;;;;;;;15.70;11.00;;;;;;;16.41;77.97;101470.00;10414005;28;20103;-78
2022/07/09 03:13:03;;;;;;;15.23;10.00;;;;;;;16.40;77.53;101465.53;10382221;28;20053;-79
2022/07/09 03:18:14;;;;;;;16.55;10.15;;;;;;;16.23;78.18;101469.72;10396553;28;20087;-78
2022/07/09 03:23:18;;;;;;;15.32;10.15;;;;;;;16.04;79.16;101473.19;10403596;28;20060;-78
2022/07/09 03:28:21;;;;;;;22.75;11.95;;;;;;;16.15;78.96;101475.81;10402638;28;20056;-78
2022/07/09 03:33:23;;;;;;;21.25;11.80;;;;;;;16.21;78.79;101471.69;10415318;28;20049;-78
2022/07/09 03:38:27;;;;;;;21.77;12.32;;;;;;;16.21;78.69;101478.00;10408101;28;20070;-78
2022/07/09 03:43:30;;;;;;;20.35;12.25;;;;;;;16.34;78.09;101475.06;10397703;28;20774;-79
2022/07/09 03:48:34;;;;;;;26.55;11.68;;;;;;;16.10;79.62;101468.09;10400384;28;20063;-78
2022/07/09 03:53:39;;;;;;;22.25;13.13;;;;;;;16.47;78.39;101466.72;10400299;28;20052;-78
2022/07/09 03:58:43;;;;;;;26.40;13.10;;;;;;;16.46;78.01;101465.88;10399692;28;20049;-77
2022/07/09 04:03:46;;;;;;;25.55;13.13;;;;;;;16.52;77.57;101431.91;10390026;28;20045;-78
2022/07/09 04:08:50;;;;;;;27.33;15.00;;;;;;;16.46;77.96;101444.19;10396781;28;20134;-79
2022/07/09 04:13:52;;;;;;;24.25;13.45;;;;;;;16.39;78.57;101450.28;10400470;28;20068;-78
2022/07/09 04:18:56;;;;;;;23.92;14.60;;;;;;;16.35;78.62;101447.84;10404527;28;20045;-78
2022/07/09 04:24:00;;;;;;;23.42;14.57;;;;;;;16.54;78.20;101441.63;10396866;28;20579;-78
2022/07/09 04:29:03;;;;;;;24.38;15.82;;;;;;;16.33;79.02;101438.97;10402680;28;20482;-78
2022/07/09 04:34:06;;;;;;;22.73;14.90;;;;;;;16.72;77.86;101443.69;10386633;28;20454;-78
2022/07/09 04:39:10;;;;;;;27.85;15.57;;;;;;;16.55;78.22;101447.91;10406858;28;20124;-79
2022/07/09 04:44:15;;;;;;;27.27;15.32;;;;;;;16.64;77.78;101440.78;10398450;28;20565;-78
2022/07/09 04:49:18;;;;;;;27.27;15.55;;;;;;;16.24;79.64;101441.63;10411592;28;20517;-77
2022/07/09 04:54:22;;;;;;;29.17;17.08;;;;;;;16.31;79.57;101448.25;10399540;28;20060;-78
2022/07/09 04:59:25;;;;;;;25.58;17.50;;;;;;;16.72;78.49;101454.53;10394000;28;20065;-77
2022/07/09 05:04:28;;;;;;;22.20;17.35;;;;;;;16.54;78.65;101452.50;10389596;28;20137;-77
2022/07/09 05:09:32;;;;;;;27.73;19.73;;;;;;;16.23;78.96;101454.31;10404202;28;20184;-78
2022/07/09 05:14:35;;;;;;;25.20;19.45;;;;;;;16.47;78.12;101459.44;10396293;28;20045;-78
2022/07/09 05:19:38;;;;;;;28.92;19.73;;;;;;;15.86;80.06;101454.84;10403399;28;20041;-77
2022/07/09 05:24:42;;;;;;;33.17;19.25;;;;;;;16.04;79.59;101452.34;10392224;28;20052;-77
2022/07/09 05:29:45;;;;;;;29.02;20.05;;;;;;;16.08;79.77;101461.09;10388766;28;20068;-78
2022/07/09 05:34:47;;;;;;;33.33;19.48;;;;;;;16.02;80.18;101469.78;10392759;28;20052;-78
2022/07/09 05:39:52;;;;;;;27.50;19.63;;;;;;;16.12;78.94;101462.53;10401944;28;20056;-78
2022/07/09 05:44:56;;;;;;;27.83;17.60;;;;;;;15.99;79.68;101468.19;10391795;28;20135;-78
2022/07/09 05:49:59;;;;;;;27.15;18.30;;;;;;;16.13;79.52;101462.41;10405048;28;20052;-77
2022/07/09 05:55:03;;;;;;;23.58;18.00;;;;;;;16.57;77.80;101449.50;10402249;28;20154;-78
2022/07/09 06:00:11;;;;;;;26.52;16.67;;;;;;;16.38;77.60;101457.56;10373526;28;20116;-78
2022/07/09 06:05:13;;;;;;;18.73;15.30;;;;;;;16.92;75.47;101458.13;10386849;28;20041;-78
2022/07/09 06:10:18;;;;;;;18.35;14.10;;;;;;;17.27;73.31;101454.94;10396850;28;20041;-78
2022/07/09 06:15:20;;;;;;;21.25;13.45;;;;;;;17.35;73.82;101454.22;10394599;28;20053;-77
2022/07/09 06:20:23;;;;;;;24.67;13.55;;;;;;;17.44;73.10;101454.25;10397105;28;20063;-78
2022/07/09 06:25:27;;;;;;;19.50;12.60;;;;;;;16.94;74.86;101448.84;10397645;28;20063;-78
2022/07/09 06:30:30;;;;;;;13.88;10.38;;;;;;;17.02;72.64;101459.03;10393991;28;20582;-78
2022/07/09 06:35:33;;;;;;;16.98;11.50;;;;;;;17.64;71.14;101455.06;10387452;28;20041;-78
2022/07/09 06:40:37;;;;;;;16.13;11.20;;;;;;;17.00;72.46;101452.88;10403832;28;20128;-78
2022/07/09 06:45:40;;;;;;;14.55;10.45;;;;;;;17.51;71.27;101445.50;10408666;28;20055;-79
2022/07/09 06:50:43;;;;;;;14.98;10.85;;;;;;;17.25;71.66;101456.91;10403561;28;20076;-79
2022/07/09 06:55:47;;;;;;;15.45;10.75;;;;;;;17.94;69.24;101453.16;10401223;28;20080;-79
2022/07/09 07:00:50;;;;;;;15.45;9.93;;;;;;;18.39;67.98;101452.47;10413223;28;20054;-79
2022/07/09 07:05:53;;;;;;;11.18;8.38;;;;;;;17.48;69.94;101443.94;10402295;28;20052;-79
2022/07/09 07:10:57;;;;;;;14.05;7.55;;;;;;;18.33;66.61;101437.59;10406921;28;20041;-79
2022/07/09 07:16:00;;;;;;;8.18;5.15;;;;;;;18.65;65.49;101439.03;10416132;28;20104;-79
2022/07/09 07:21:02;;;;;;;5.60;4.20;;;;;;;19.60;61.12;101436.78;10414416;28;20183;-79
2022/07/09 07:26:07;;;;;;;6.88;3.88;;;;;;;19.12;61.63;101438.03;10409980;28;20107;-78
2022/07/09 07:31:10;;;;;;;6.00;3.65;;;;;;;20.11;60.10;101432.38;10404861;28;20067;-78
2022/07/09 07:36:13;;;;;;;6.50;3.67;;;;;;;21.17;57.31;101415.53;10404378;28;20049;-79
2022/07/09 07:41:18;;;;;;;4.18;3.25;;;;;;;20.70;57.08;101433.31;10405541;28;20065;-78
2022/07/09 07:46:20;;;;;;;4.93;4.03;;;;;;;19.90;58.94;101417.22;10403625;28;20048;-79
2022/07/09 07:51:24;;;;;;;4.15;3.60;;;;;;;20.94;56.58;101424.34;10403667;28;20053;-78
2022/07/09 07:56:28;;;;;;;6.35;2.83;;;;;;;21.00;56.20;101414.63;10407413;28;20037;-78
2022/07/09 08:01:31;;;;;;;3.92;2.72;;;;;;;22.58;52.73;101415.16;10416922;28;21179;-78
2022/07/09 08:06:35;;;;;;;5.13;2.20;;;;;;;21.55;54.65;101403.06;10412544;28;20147;-77
2022/07/09 08:11:39;;;;;;;3.47;2.40;;;;;;;22.23;52.96;101398.16;10402009;28;20049;-78
2022/07/09 08:16:42;;;;;;;5.10;2.05;;;;;;;20.69;56.29;101411.66;10391902;28;20400;-77
2022/07/09 08:21:45;;;;;;;3.47;1.92;;;;;;;20.98;54.80;101401.16;10407371;28;20086;-78
2022/07/09 08:26:49;;;;;;;3.35;1.92;;;;;;;21.91;52.68;101394.50;10405451;28;20619;-77
2022/07/09 08:31:52;;;;;;;3.45;2.10;;;;;;;21.52;54.44;101397.09;10394839;28;20052;-78
2022/07/09 08:36:55;;;;;;;2.10;1.45;;;;;;;20.66;56.30;101395.63;10411702;28;20088;-78
2022/07/09 08:41:59;;;;;;;2.22;1.55;;;;;;;20.61;55.59;101404.31;10402750;28;20053;-78
2022/07/09 08:47:03;;;;;;;3.45;1.88;;;;;;;20.02;58.99;101404.19;10414442;28;20061;-78
2022/07/09 08:52:07;;;;;;;3.95;1.92;;;;;;;19.95;58.67;101396.81;10418971;28;20058;-78
2022/07/09 08:57:12;;;;;;;2.63;2.28;;;;;;;19.40;60.10;101393.34;10415088;28;20053;-78
2022/07/09 09:02:14;;;;;;;3.58;2.47;;;;;;;20.20;59.53;101389.63;10402859;28;20049;-78
2022/07/09 09:07:19;;;;;;;3.10;2.80;;;;;;;20.11;58.83;101384.13;10401625;28;20119;-77
2022/07/09 09:12:29;;;;;;;5.93;2.97;;;;;;;19.54;60.45;101388.34;10393969;28;20084;-78
2022/07/09 09:17:32;;;;;;;6.50;3.13;;;;;;;20.02;58.47;101378.78;10383895;28;20041;-78
2022/07/09 09:22:35;;;;;;;2.60;2.40;;;;;;;20.46;57.96;101371.34;10396198;28;20049;-77
2022/07/09 09:27:39;;;;;;;4.97;2.60;;;;;;;19.14;60.17;101374.22;10401529;28;20049;-78
2022/07/09 09:32:42;;;;;;;4.65;2.40;;;;;;;19.27;61.63;101390.16;10410281;28;20515;-78
2022/07/09 09:37:45;;;;;;;4.95;2.50;;;;;;;19.72;59.32;101391.03;10399805;28;20053;-78
2022/07/09 09:42:52;;;;;;;4.53;2.78;;;;;;;19.86;59.17;101385.00;10399734;28;20119;-78
2022/07/09 09:47:59;;;;;;;4.50;2.10;;;;;;;19.45;60.25;101379.25;10405416;28;20041;-78
2022/07/09 09:53:03;;;;;;;4.75;1.95;;;;;;;18.98;61.53;101384.97;10392690;28;20044;-78
2022/07/09 09:58:10;;;;;;;4.68;2.00;;;;;;;19.19;61.89;101392.81;10402201;28;20052;-78
2022/07/09 10:03:13;;;;;;;1.98;1.70;;;;;;;18.67;62.12;101389.88;10407811;28;20045;-78
2022/07/09 10:08:16;;;;;;;2.17;1.73;;;;;;;19.10;63.47;101375.53;10406133;28;20084;-78
2022/07/09 10:13:22;;;;;;;2.92;2.25;;;;;;;18.14;74.51;101380.56;10409385;28;20172;-77
2022/07/09 10:18:25;;;;;;;4.55;2.60;;;;;;;18.07;75.47;101371.28;10422288;28;20060;-77
2022/07/09 10:23:28;;;;;;;3.20;2.75;;;;;;;18.29;75.50;101373.66;10418070;28;20049;-78
2022/07/09 10:28:41;;;;;;;3.30;2.42;;;;;;;19.37;73.53;101369.13;10412261;28;20076;-78
2022/07/09 10:33:52;;;;;;;7.65;2.40;;;;;;;20.16;64.63;101356.38;10423364;28;20037;-80
2022/07/09 10:38:56;;;;;;;3.30;2.22;;;;;;;21.04;59.52;101349.66;10411870;28;20053;-78
2022/07/09 10:44:00;;;;;;;3.35;1.98;;;;;;;20.33;57.03;101360.88;10407891;28;20184;-78
2022/07/09 10:49:04;;;;;;;4.47;1.55;;;;;;;20.37;58.15;101336.84;10406216;28;20049;-77
2022/07/09 10:54:15;;;;;;;2.45;1.88;;;;;;;21.89;55.93;101320.84;10422392;28;20061;-77
2022/07/09 10:59:20;;;;;;;2.97;1.83;;;;;;;21.76;53.86;101309.59;10404007;28;20195;-78
2022/07/09 11:04:30;;;;;;;2.33;1.40;;;;;;;23.21;49.86;101309.97;10402196;28;20057;-78
2022/07/09 11:09:34;;;;;;;2.80;1.35;;;;;;;21.64;51.36;101311.84;10388121;28;20053;-78
2022/07/09 11:14:45;;;;;;;1.17;1.13;;;;;;;22.44;49.78;101307.28;10401816;28;20198;-78
2022/07/09 11:19:49;;;;;;;2.22;1.10;;;;;;;22.90;49.70;101304.53;10415807;28;20060;-78
2022/07/09 11:24:52;;;;;;;2.80;1.05;;;;;;;23.82;48.82;101310.72;10406991;28;20051;-78
2022/07/09 11:30:02;;;;;;;2.60;1.27;;;;;;;22.45;49.01;101298.03;10418896;28;20130;-78
2022/07/09 11:35:06;;;;;;;1.67;1.20;;;;;;;21.77;50.29;101291.31;10400787;28;20059;-78
2022/07/09 11:40:16;;;;;;;1.52;1.13;;;;;;;23.35;46.98;101287.22;10404331;28;20596;-80
2022/07/09 11:45:23;;;;;;;1.02;0.88;;;;;;;24.65;43.55;101285.75;10419650;28;21216;-79
2022/07/09 11:50:27;;;;;;;3.30;1.13;;;;;;;24.83;45.23;101282.56;10409962;28;20049;-80
2022/07/09 11:55:31;;;;;;;1.52;1.42;;;;;;;24.28;45.04;101282.19;10410054;28;20072;-80
2022/07/09 12:00:40;;;;;;;2.17;1.15;;;;;;;23.11;46.80;101291.03;10422998;28;20942;-80
2022/07/09 12:05:43;;;;;;;3.28;1.27;;;;;;;20.85;61.28;101298.91;10410160;28;20172;-81
2022/07/09 12:10:46;;;;;;;11.27;2.60;;;;;;;18.68;72.10;101320.84;10410991;28;21257;-78
2022/07/09 12:15:50;;;;;;;7.22;2.38;;;;;;;17.43;82.89;101308.56;10418635;28;20099;-78
2022/07/09 12:20:53;;;;;;;4.10;2.10;;;;;;;17.94;88.15;101292.78;10395700;28;20099;-79
2022/07/09 12:25:56;;;;;;;4.18;2.10;;;;;;;19.34;87.68;101287.72;10407459;28;20041;-78
2022/07/09 12:31:00;;;;;;;3.10;2.03;;;;;;;21.14;79.70;101271.09;10406672;28;20110;-80
2022/07/09 12:36:03;;;;;;;3.08;1.70;;;;;;;21.14;71.94;101257.44;10404622;28;20056;-80
2022/07/09 12:41:06;;;;;;;1.98;1.27;;;;;;;22.04;67.17;101251.69;10401077;28;20060;-79
2022/07/09 12:46:10;;;;;;;2.75;1.10;;;;;;;22.80;59.53;101233.59;10407007;28;21217;-80
2022/07/09 12:51:13;;;;;;;3.58;1.10;;;;;;;23.64;56.88;101220.56;10410616;28;20066;-80
2022/07/09 12:56:16;;;;;;;1.63;0.88;;;;;;;23.62;53.62;101219.06;10399443;28;20120;-79
2022/07/09 13:01:22;;;;;;;0.90;0.90;;;;;;;24.66;54.28;101213.31;10403023;28;20056;-78
2022/07/09 13:06:34;;;;;;;2.15;1.00;;;;;;;25.47;51.50;101204.63;10398306;28;20489;-79
2022/07/09 13:11:38;;;;;;;1.75;0.85;;;;;;;25.89;48.20;101211.84;10398812;28;20495;-79
2022/07/09 13:16:43;;;;;;;0.63;0.60;;;;;;;25.01;43.53;101197.72;10411111;28;20095;-79
2022/07/09 13:22:00;;;;;;;2.25;0.73;;;;;;;22.01;45.44;101202.81;10405249;28;21301;-79
2022/07/09 13:27:07;;;;;;;1.88;0.73;;;;;;;22.18;46.39;101211.78;10393855;28;20053;-79
2022/07/09 13:32:11;;;;;;;1.17;0.90;;;;;;;22.13;47.87;101220.53;10387656;28;20055;-79
2022/07/09 13:37:22;;;;;;;1.98;1.00;;;;;;;22.99;48.11;101210.31;10394893;28;20065;-78
2022/07/09 13:42:25;;;;;;;0.82;0.82;;;;;;;23.82;44.56;101202.88;10382111;28;20061;-78
2022/07/09 13:47:29;;;;;;;2.05;0.90;;;;;;;23.31;43.98;101221.97;10393214;28;20499;-79
2022/07/09 13:52:33;;;;;;;1.88;0.90;;;;;;;23.15;44.20;101223.88;10394244;28;20075;-79
2022/07/09 13:57:36;;;;;;;1.30;0.98;;;;;;;23.35;44.53;101220.56;10396236;28;20049;-78
2022/07/09 14:02:40;;;;;;;1.75;1.00;;;;;;;24.35;43.39;101206.22;10407822;28;20107;-78
2022/07/09 14:07:43;;;;;;;2.03;0.95;;;;;;;25.34;41.69;101213.63;10390218;28;20059;-78
2022/07/09 14:12:47;;;;;;;3.60;1.13;;;;;;;26.19;39.30;101194.97;10387657;28;20050;-78
2022/07/09 14:17:51;;;;;;;1.73;0.80;;;;;;;26.14;39.13;101195.59;10394263;28;20692;-78
2022/07/09 14:22:54;;;;;;;1.00;0.88;;;;;;;25.22;39.21;101196.84;10393193;28;21252;-79
2022/07/09 14:27:57;;;;;;;2.65;1.17;;;;;;;25.81;40.68;101193.59;10415361;28;20041;-79
2022/07/09 14:33:01;;;;;;;1.48;0.95;;;;;;;25.47;40.89;101194.47;10409252;28;20046;-78
2022/07/09 14:38:04;;;;;;;1.05;1.00;;;;;;;24.60;42.94;101192.13;10404386;28;20085;-79
2022/07/09 14:43:07;;;;;;;2.95;0.98;;;;;;;24.15;41.46;101196.94;10410093;28;20056;-78
2022/07/09 14:48:13;;;;;;;2.17;0.93;;;;;;;24.24;42.19;101191.09;10394347;28;20046;-79
2022/07/09 14:53:16;;;;;;;2.92;1.00;;;;;;;25.48;39.74;101187.91;10391305;28;20068;-78
2022/07/09 14:58:19;;;;;;;2.08;1.13;;;;;;;26.35;37.19;101174.47;10398387;28;20063;-79
2022/07/09 15:03:24;;;;;;;2.10;1.10;;;;;;;26.03;37.93;101174.19;10398785;28;20053;-78
2022/07/09 15:08:26;;;;;;;3.15;1.30;;;;;;;24.76;39.75;101172.59;10404556;28;20669;-79
2022/07/09 15:13:29;;;;;;;5.72;1.10;;;;;;;24.16;40.51;101173.91;10405988;28;20751;-79
2022/07/09 15:18:33;;;;;;;4.95;1.00;;;;;;;24.87;39.57;101173.94;10390798;28;20088;-78
2022/07/09 15:23:37;;;;;;;2.88;1.05;;;;;;;25.11;40.68;101175.44;10396798;28;20041;-78
2022/07/09 15:28:45;;;;;;;2.95;0.90;;;;;;;26.25;39.63;101173.00;10395794;28;20518;-78
2022/07/09 15:33:49;;;;;;;2.40;0.93;;;;;;;26.36;39.21;101178.94;10391004;28;20050;-78
2022/07/09 15:38:52;;;;;;;6.32;1.52;;;;;;;24.91;41.49;101192.59;10406035;28;20055;-78
2022/07/09 15:43:54;;;;;;;4.13;1.05;;;;;;;23.97;42.48;101186.38;10415442;28;20049;-78
2022/07/09 15:48:59;;;;;;;2.75;1.25;;;;;;;24.12;42.30;101189.09;10405738;28;20147;-78
2022/07/09 15:54:01;;;;;;;2.58;0.98;;;;;;;23.45;43.21;101185.50;10400987;28;20046;-77
2022/07/09 15:59:07;;;;;;;5.15;1.25;;;;;;;23.16;44.33;101194.56;10385424;28;20049;-78
2022/07/09 16:04:11;;;;;;;3.08;1.00;;;;;;;25.10;41.02;101177.34;10403668;28;20157;-77
2022/07/09 16:09:14;;;;;;;3.10;1.40;;;;;;;24.49;41.51;101188.88;10395564;28;20056;-78
2022/07/09 16:14:17;;;;;;;3.67;1.25;;;;;;;24.47;42.01;101187.38;10388208;28;20157;-78
2022/07/09 16:19:21;;;;;;;1.65;0.85;;;;;;;25.01;40.59;101192.22;10397064;28;20099;-78
2022/07/09 16:24:24;;;;;;;2.05;1.13;;;;;;;25.50;39.29;101179.44;10409327;28;20128;-78
2022/07/09 16:29:26;;;;;;;6.60;1.77;;;;;;;25.02;40.50;101187.59;10408729;28;20046;-78
2022/07/09 16:34:31;;;;;;;5.35;1.33;;;;;;;23.74;41.41;101192.00;10399630;28;20065;-78
2022/07/09 16:39:33;;;;;;;4.45;1.30;;;;;;;22.46;43.21;101202.06;10379098;28;20056;-78
2022/07/09 16:44:36;;;;;;;3.88;1.00;;;;;;;22.55;43.42;101202.81;10398557;28;20764;-78
2022/07/09 16:49:40;;;;;;;4.72;0.90;;;;;;;21.94;44.24;101215.50;10397257;28;20056;-79
2022/07/09 16:55:04;;;;;;;7.13;1.25;;;;;;;21.70;44.02;101214.59;10403685;28;20049;-78
2022/07/09 17:00:08;;;;;;;2.30;1.05;;;;;;;21.75;44.01;101220.41;10400042;28;20052;-79
2022/07/09 17:05:16;;;;;;;6.05;1.15;;;;;;;22.59;41.92;101222.47;10379653;28;20144;-79
2022/07/09 17:10:20;;;;;;;4.68;1.00;;;;;;;24.70;38.32;101220.09;10397141;28;20050;-79
2022/07/09 17:15:23;;;;;;;2.35;1.05;;;;;;;24.29;39.02;101224.31;10396187;28;20414;-78
2022/07/09 17:20:27;;;;;;;2.42;0.98;;;;;;;22.14;42.72;101226.88;10390261;28;20056;-77
2022/07/09 17:25:30;;;;;;;3.15;1.35;;;;;;;23.96;40.70;101223.94;10392746;28;20572;-78
2022/07/09 17:30:33;;;;;;;3.40;0.98;;;;;;;26.61;34.64;101224.09;10404705;28;21225;-77
2022/07/09 17:35:37;;;;;;;2.15;1.00;;;;;;;26.97;34.26;101239.41;10402457;28;20060;-77
2022/07/09 17:40:40;;;;;;;4.65;1.23;;;;;;;27.04;33.98;101247.66;10403393;28;20124;-76
2022/07/09 17:45:43;;;;;;;3.90;0.73;;;;;;;25.04;36.84;101254.22;10395150;28;20048;-78
2022/07/09 17:50:47;;;;;;;2.33;0.85;;;;;;;24.27;38.03;101258.50;10399474;28;20179;-77
2022/07/09 17:55:50;;;;;;;3.45;1.10;;;;;;;23.22;39.02;101262.34;10407569;28;20045;-78
2022/07/09 18:00:53;;;;;;;2.88;1.00;;;;;;;21.11;42.84;101260.50;10412180;28;20061;-78
2022/07/09 18:05:57;;;;;;;6.38;1.13;;;;;;;20.59;44.76;101256.22;10399038;28;20204;-78
2022/07/09 18:11:06;;;;;;;3.33;1.00;;;;;;;20.47;44.84;101261.16;10380353;28;20072;-78
2022/07/09 18:16:09;;;;;;;1.65;0.80;;;;;;;20.47;44.45;101268.50;10388905;28;21275;-78
2022/07/09 18:21:13;;;;;;;5.65;1.23;;;;;;;19.26;45.45;101275.94;10395829;28;20056;-77
2022/07/09 18:26:17;;;;;;;2.92;1.20;;;;;;;19.19;44.79;101272.97;10392248;28;21215;-78
2022/07/09 18:31:20;;;;;;;1.90;0.63;;;;;;;19.16;45.44;101276.03;10406223;28;20061;-78
2022/07/09 18:36:24;;;;;;;3.35;1.33;;;;;;;19.15;45.29;101277.03;10401973;28;20045;-77
2022/07/09 18:41:27;;;;;;;4.97;1.55;;;;;;;18.75;46.03;101273.78;10410795;28;20051;-78
2022/07/09 18:46:30;;;;;;;3.78;0.73;;;;;;;17.98;46.91;101277.91;10409087;28;20224;-77
2022/07/09 18:51:34;;;;;;;3.28;0.75;;;;;;;17.96;46.71;101276.31;10408615;28;20071;-78
2022/07/09 18:56:38;;;;;;;3.33;0.82;;;;;;;17.79;47.18;101289.69;10405222;28;20089;-77
2022/07/09 19:01:41;;;;;;;2.38;0.80;;;;;;;17.68;46.49;101284.44;10405256;28;20588;-77
2022/07/09 19:06:45;;;;;;;4.47;0.95;;;;;;;17.35;46.90;101300.28;10399937;28;20045;-78
2022/07/09 19:11:48;;;;;;;3.85;0.80;;;;;;;17.41;46.94;101302.41;10407781;28;20048;-77
2022/07/09 19:16:51;;;;;;;6.30;0.95;;;;;;;17.45;46.50;101298.41;10412774;28;20059;-77
2022/07/09 19:21:55;;;;;;;2.50;0.80;;;;;;;17.41;46.72;101294.25;10404926;28;20071;-77
2022/07/09 19:26:58;;;;;;;2.55;1.10;;;;;;;17.00;47.45;101304.47;10411709;28;20546;-77
2022/07/09 19:37:23;;;;;;;2.63;0.80;;;;;;;16.85;48.33;101321.31;10405777;28;20191;-77
2022/07/09 19:42:25;;;;;;;2.03;0.70;;;;;;;16.75;48.30;101322.16;10421290;28;20052;-78
2022/07/09 19:47:28;;;;;;;3.22;0.88;;;;;;;16.76;48.34;101333.88;10405162;28;20175;-77
2022/07/09 19:52:32;;;;;;;3.83;0.82;;;;;;;16.65;49.02;101337.59;10402021;28;20148;-78
2022/07/09 19:57:35;;;;;;;2.83;0.88;;;;;;;16.42;49.14;101336.97;10403334;28;20497;-77
2022/07/09 20:02:38;;;;;;;4.85;0.93;;;;;;;16.31;49.58;101346.06;10404239;28;20045;-77
2022/07/09 20:07:42;;;;;;;2.45;0.80;;;;;;;15.81;50.54;101358.69;10398948;28;20064;-77
2022/07/09 20:12:45;;;;;;;4.63;0.95;;;;;;;15.70;51.17;101354.22;10398176;28;20128;-79
2022/07/09 20:17:47;;;;;;;5.15;1.08;;;;;;;15.88;51.35;101366.16;10416542;28;20503;-77
2022/07/09 20:22:52;;;;;;;5.22;1.13;;;;;;;15.76;52.02;101364.50;10404710;28;20064;-77
2022/07/09 20:27:54;;;;;;;4.05;1.27;;;;;;;15.65;52.43;101359.16;10419515;28;20933;-77
2022/07/09 20:32:57;;;;;;;4.28;0.90;;;;;;;15.59;52.26;101357.00;10392189;28;20183;-77
2022/07/09 20:38:02;;;;;;;3.47;1.00;;;;;;;15.27;53.38;101360.59;10395032;28;20100;-77
2022/07/09 20:43:05;;;;;;;5.43;0.70;;;;;;;15.43;53.52;101366.44;10402445;28;20692;-77
2022/07/09 20:48:08;;;;;;;4.20;1.05;;;;;;;15.69;52.29;101372.31;10408584;28;20414;-77
2022/07/09 20:53:12;;;;;;;3.47;0.70;;;;;;;15.84;51.79;101372.81;10402936;28;20049;-77
2022/07/09 20:58:15;;;;;;;5.53;1.15;;;;;;;15.67;51.98;101377.00;10404679;28;20057;-77
2022/07/09 21:03:18;;;;;;;;;;;;;;;15.61;52.19;101376.69;10396100;28;20463;-77
2022/07/09 21:08:22;;;;;;;3.58;0.90;;;;;;;15.34;53.54;101379.91;10392697;28;19931;-77
2022/07/09 21:13:24;;;;;;;4.43;1.42;;;;;;;14.76;55.58;101370.31;10405019;28;20634;-77
2022/07/09 21:23:51;;;;;;;3.63;0.60;;;;;;;15.07;53.69;101354.19;10392670;28;20116;-77
2022/07/09 21:28:54;;;;;;;4.53;1.10;;;;;;;14.64;54.84;101365.91;10396034;28;20103;-77
2022/07/09 21:33:58;;;;;;;;;;;;;;;14.78;53.96;101362.94;10394622;28;20037;-78
2022/07/09 21:39:02;;;;;;;3.35;0.88;;;;;;;14.40;55.23;101362.50;10396945;28;19932;-78
2022/07/09 21:44:05;;;;;;;3.00;0.80;;;;;;;14.36;54.83;101362.72;10404508;28;20049;-77
2022/07/09 21:49:12;;;;;;;4.25;0.80;;;;;;;14.89;53.91;101367.44;10395858;28;20048;-77
2022/07/09 21:54:16;;;;;;;3.85;0.80;;;;;;;14.80;53.78;101355.50;10394901;28;20400;-77
2022/07/09 21:59:19;;;;;;;5.10;0.82;;;;;;;14.60;54.72;101349.06;10385735;28;20083;-77
2022/07/09 22:04:22;;;;;;;4.63;0.80;;;;;;;14.83;54.37;101355.25;10399107;28;20163;-78
2022/07/09 22:09:25;;;;;;;;;;;;;;;14.87;54.33;101353.19;10404866;28;20045;-77
2022/07/09 22:14:29;;;;;;;5.10;1.02;;;;;;;15.02;54.50;101346.44;10416967;28;19925;-77
2022/07/09 22:19:31;;;;;;;4.70;0.90;;;;;;;15.35;53.77;101344.59;10406749;28;20106;-77
2022/07/09 22:24:35;;;;;;;4.18;0.75;;;;;;;15.26;54.23;101343.50;10402172;28;20059;-77
2022/07/09 22:29:38;;;;;;;3.55;0.95;;;;;;;14.84;54.62;101350.72;10397931;28;20624;-77
2022/07/09 22:34:41;;;;;;;2.53;0.80;;;;;;;15.05;55.06;101351.59;10411002;28;20057;-77
2022/07/09 22:39:45;;;;;;;1.92;0.80;;;;;;;15.05;54.17;101342.63;10407387;28;20493;-76
2022/07/09 22:44:48;;;;;;;3.05;0.82;;;;;;;15.21;54.54;101348.44;10399449;28;20769;-77
2022/07/09 22:49:51;;;;;;;2.08;0.95;;;;;;;15.23;54.77;101348.34;10398418;28;21282;-77
2022/07/09 22:54:55;;;;;;;5.30;1.98;;;;;;;14.93;55.30;101347.25;10402604;28;20102;-77
2022/07/09 22:59:58;;;;;;;3.45;0.82;;;;;;;14.69;56.57;101349.28;10409743;28;20557;-77
2022/07/09 23:05:00;;;;;;;5.80;1.00;;;;;;;14.82;56.30;101342.72;10401898;28;20114;-77
2022/07/09 23:10:05;;;;;;;8.60;1.40;;;;;;;14.77;56.47;101347.66;10409867;28;20059;-77
2022/07/09 23:15:09;;;;;;;2.50;0.75;;;;;;;15.06;56.04;101344.38;10412960;28;20112;-77
2022/07/09 23:20:13;;;;;;;7.43;1.40;;;;;;;14.32;57.09;101338.81;10403881;28;21982;-78